Airfield :
LOGIN :

Register | Disclaimer

   EN    FR    IT 

 










Legend :    VFR   Marginal VFR   IFR   Intensive IFR   Very Intensive IFR
Visi :
Ceiling :
>= 8 km
>= 3000ft
5 to 8 km
1000 to 3000 ft
1500m to 5 km
500 to 1000 ft
800 to 1500m
200 to 500 ft
< 800m
< 200 ft
Symbols :   Thunderstorms  Fog  Heavy snow  Heavy precipitations  Wind > 20 kt
SIGMETs :     Misc.  Thunderstorms  Icing  Turbulence  Mountain Waves  Volcanic Ashes






- Airport Elevation : 100 ft


EBDT - Schaffen

CURRENT METAR :
  • 231955Z AUTO 31006KT 9999 BKN060/// BKN150/// 08/04 Q1022 BLU

EXPIRED METARs :
  • 231925Z AUTO 31008KT 9999 BKN060/// OVC170/// 08/04 Q1021 BLU
  • 231855Z AUTO 32011KT 9999 OVC050/// 09/04 Q1020 BLU
  • 231825Z AUTO 31015G27KT 9999 FEW025/// OVC050/// 09/05 Q1019 BLU
  • 231755Z AUTO 32013KT 9999 FEW019/// SCT028/// BKN034/// 10/07 Q1018 BLU
  • 231725Z AUTO 30013KT 9999 FEW008/// SCT034/// BKN044/// 10/08 Q1017 BLU
  • 231703Z AUTO 30010KT 9999 -DZ FEW009/// SCT013/// BKN018/// 11/10 Q1017 GRN

Expired Forecast.



MET'MAP, your aeronautical weather chart ! - Copyright ORBIFLY December 2007 - Disclaimer

ORBIFLY MET'MAP TEAM :

Programming & Development : Alexandra Zaïnal
Concept & original design : Baudouin d'Aumeries
Assistance for programming : Marc-Olivier Méhu
Technical & hardware support : Manuel Goepfert

Contact : metmap@orbifly.com




SOURCES & CREDITS :

   NOAA